Sydney, New South Wales

9:59 PM AEST on August 26, 2016 (GMT +1000)
Kingsford Smith International | | Change Station

Elev 20 ft 33.95 °S, 151.17 °E | Updated 29 minutes ago

Light Rain Showers
Light Showers Rain
55 °F
Feels Like 55 °F
N
8
Wind Variable Wind from South

Today
High -- | Low -- °F
--% Chance of Precip.
Yesterday
High -- | Low -- °F
Precip. -- in
Pressure 30.15 in
Visibility 6.2 miles
Clouds Few 4000 ft
Mostly Cloudy 5900 ft
Mostly Cloudy 8000 ft
Dew Point 43 °F
Humidity 63%
Rainfall 0.00 in
Snow Depth Not available.
6:21 AM 5:33 PM
Waning Crescent, 35% visible
METAR YSSY 261130Z 17007KT 9999 -SHRA FEW040 BKN059 BKN080 13/06 Q1021 NOSIG
Pressure 30.15 in
Visibility 6.2 miles
Clouds Few 4000 ft
Mostly Cloudy 5900 ft
Mostly Cloudy 8000 ft
Dew Point 43 °F
Humidity 63%
Rainfall 0.00 in
Snow Depth Not available.
6:21 AM 5:33 PM
Waning Crescent, 35% visible
METAR YSSY 261130Z 17007KT 9999 -SHRA FEW040 BKN059 BKN080 13/06 Q1021 NOSIG

10-Day Weather Forecast

Almanac

Astronomy

Aug. 26, 2016 Rise Set
Actual Time
Civil Twilight
Nautical Twilight
Astronomical Twilight
Moon
Length of Visible Light
Length of Day
Tomorrow will be .
, % of the Moon is Illuminated

Today's Extremes

Country Highs Country Lows

Community

WunderPhotos

Upload Photos

1,935,071 photos uploaded!

WunderBlog® & News

Nearby

Air Quality

  Air Quality AQ Index Pollutant
Not available.

Snow Depth

Station Depth Elevation

Earthquake Activity

City Distance Mag. Time & Date
Minimum magnitude displayed is 2.5.

Coastal Water Temperatures

Place Temperature

Stations

Nearby Weather Stations

Station Location Temp. Windchill Dew Point Humidity Wind Precip. Elev Updated Type